Erie Municipal Airport


Codes: KEIK/
Name: Erie Municipal Airport
City: Erie
Country: United States
Elevation: 5130 ft.

Photos at Erie Municipal Airport


   Photos courtesy of SpottingLog. You can add your own sightings and photos by signing up for a free trial today.



No photos found.

Weather at Erie Municipal Airport


Time (UTC)DescriptionTempratureWindCloud coverageVisibilityPressureHumidity
26-Jun-2024 00:00Scattered Clouds35°C20 mph, S27%10000m1013hPa15%
26-Jun-2024 03:00Scattered Clouds29°C9 mph, SE25%10000m1013hPa24%
26-Jun-2024 06:00Few Clouds22°C2 mph, W20%10000m1012hPa35%
26-Jun-2024 09:00Clear Sky21°C4 mph, SW0%10000m1013hPa36%
26-Jun-2024 12:00Clear Sky20°C2 mph, N1%10000m1014hPa37%
26-Jun-2024 15:00Clear Sky26°C7 mph, N8%10000m1014hPa26%
26-Jun-2024 18:00Scattered Clouds32°C7 mph, SE41%10000m1010hPa20%
26-Jun-2024 21:00Overcast Clouds33°C18 mph, NW98%10000m1006hPa18%
27-Jun-2024 00:00Light Rain27°C7 mph, SW98%10000m1008hPa34%
27-Jun-2024 03:00Overcast Clouds25°C11 mph, W100%10000m1009hPa40%
27-Jun-2024 06:00Overcast Clouds24°C4 mph, SE100%10000m1007hPa45%
27-Jun-2024 09:00Broken Clouds19°C7 mph, NW65%10000m1008hPa66%
27-Jun-2024 12:00Broken Clouds21°C4 mph, SW78%10000m1006hPa52%
27-Jun-2024 15:00Overcast Clouds28°C2 mph, NW99%10000m1004hPa28%
27-Jun-2024 18:00Overcast Clouds33°C13 mph, NW98%10000m1001hPa20%
27-Jun-2024 21:00Overcast Clouds33°C13 mph, NW100%10000m999hPa19%
28-Jun-2024 00:00Overcast Clouds28°C18 mph, SE95%10000m998hPa32%
28-Jun-2024 03:00Light Rain21°C9 mph, NW100%10000m1003hPa56%
28-Jun-2024 06:00Overcast Clouds21°C11 mph, SW87%10000m1002hPa48%
28-Jun-2024 09:00Overcast Clouds21°C9 mph, SW100%10000m1002hPa46%
28-Jun-2024 12:00Broken Clouds20°C9 mph, W81%10000m1003hPa46%
28-Jun-2024 15:00Broken Clouds29°C9 mph, W65%10000m1002hPa24%
28-Jun-2024 18:00Scattered Clouds33°C16 mph, NW50%10000m1001hPa14%
28-Jun-2024 21:00Broken Clouds34°C25 mph, NW69%10000m1000hPa15%
29-Jun-2024 00:00Light Rain25°C18 mph, W68%10000m1005hPa32%
29-Jun-2024 03:00Overcast Clouds22°C7 mph, E99%10000m1009hPa47%
29-Jun-2024 06:00Scattered Clouds17°C13 mph, N48%10000m1015hPa62%
29-Jun-2024 09:00Clear Sky14°C9 mph, N3%10000m1019hPa46%
29-Jun-2024 12:00Clear Sky12°C4 mph, NE3%10000m1021hPa52%
29-Jun-2024 15:00Clear Sky18°C4 mph, SE2%10000m1020hPa37%
29-Jun-2024 18:00Clear Sky25°C4 mph, S5%10000m1016hPa27%
29-Jun-2024 21:00Scattered Clouds32°C4 mph, S48%10000m1010hPa21%
30-Jun-2024 00:00Light Rain25°C4 mph, E45%10000m1011hPa41%
30-Jun-2024 03:00Light Rain23°C16 mph, S58%10000m1012hPa52%
30-Jun-2024 06:00Scattered Clouds20°C2 mph, NW33%10000m1014hPa62%
30-Jun-2024 09:00Overcast Clouds17°C7 mph, NW91%10000m1015hPa78%
30-Jun-2024 12:00Broken Clouds17°C2 mph, NW70%10000m1015hPa79%
30-Jun-2024 15:00Broken Clouds25°C4 mph, SE79%10000m1013hPa45%
30-Jun-2024 18:00Overcast Clouds33°C4 mph, SE90%10000m1008hPa20%
30-Jun-2024 21:00Overcast Clouds36°C16 mph, SE93%10000m1004hPa15%